Stephen M. White — WCU6542 — position and weather

sailwx.info

Track history (hours):
 
Tides and Currents Weather Stations Pressure Air Temp Water Temp Dewpoint Dewpoint Depression Visibility Wind Speed Wind Dir Waves Ship Positions

Stephen M. White

Owner: LOS ANGELES, CITY OF, SAN PEDRO, CA. More information available from US FCC via Universal Licensing System and Coast Guard Vessel Documentation Center.

Last reported at 2017-Sep-22 02:00 UTC. Time now 2017-Sep-22 20:41 UTC.
Position N 33°43' W 118°16'.

Length 13 m.

Type: Other ship. MMSI: 367049470.

Date/timePositionNaut miles runAvg speedWind from/ knotsBaromVisibWave heightAir tempDewpointWater temp
2017-Sep-22 02:00N 33°43' W 118°16'0 0.0
2017-Sep-22 01:29N 33°43' W 118°16'0 0.0
2017-Sep-22 01:00N 33°43' W 118°16'0 0.0
2017-Sep-22 00:30N 33°43' W 118°16'0 0.0
2017-Sep-21 23:53N 33°43' W 118°16'0 0.0
2017-Sep-21 23:30N 33°43' W 118°16'0 0.0
2017-Sep-21 23:00N 33°43' W 118°16'1 1.1
2017-Sep-21 22:29N 33°44' W 118°17'1 0.9
2017-Sep-21 21:53N 33°43' W 118°16'410.3
2017-Sep-21 21:30N 33°40' W 118°15'4 7.9
2017-Sep-21 21:00N 33°43' W 118°16'0 0.0
2017-Sep-21 20:30N 33°43' W 118°16'0 0.0
2017-Sep-21 20:00N 33°43' W 118°16'0 0.0
2017-Sep-21 19:30N 33°43' W 118°16'0 0.0
2017-Sep-21 19:00N 33°43' W 118°16'0 0.0
2017-Sep-21 18:30N 33°43' W 118°16'0 0.0
2017-Sep-21 18:00N 33°43' W 118°16'0 0.0
2017-Sep-21 17:30N 33°43' W 118°16'0 0.0
2017-Sep-21 17:00N 33°43' W 118°16'0 0.0
2017-Sep-21 16:30N 33°43' W 118°16'0 0.0
2017-Sep-21 16:00N 33°43' W 118°16'0 0.4
2017-Sep-21 15:23N 33°43' W 118°16'0 0.5
2017-Sep-21 14:54N 33°43' W 118°16'0 0.0
2017-Sep-21 14:30N 33°43' W 118°16'0 0.0
2017-Sep-21 14:00N 33°43' W 118°16'2 3.1
2017-Sep-21 13:30N 33°42' W 118°15'2 2.7
2017-Sep-21 12:56N 33°43' W 118°16'0 0.0
2017-Sep-21 12:28N 33°43' W 118°16'2 4.6
2017-Sep-21 12:00N 33°42' W 118°15'2 4.5
2017-Sep-21 11:29N 33°44' W 118°15'4 7.0
2017-Sep-21 10:51N 33°40' W 118°13'411.9
2017-Sep-21 10:30N 33°44' W 118°11'4 7.1
2017-Sep-21 09:59N 33°43' W 118°15'0 0.6
2017-Sep-21 09:30N 33°42' W 118°15'1 1.0
2017-Sep-21 08:50N 33°43' W 118°15'1 0.3
2017-Sep-21 06:14N 33°43' W 118°16'0 0.0
2017-Sep-21 05:50N 33°43' W 118°16'0 0.0
2017-Sep-21 05:26N 33°43' W 118°16'0 0.0
2017-Sep-21 04:55N 33°43' W 118°16'0 0.0
2017-Sep-21 04:30N 33°43' W 118°16'0 0.0
2017-Sep-21 04:00N 33°43' W 118°16'0 0.0
2017-Sep-21 03:30N 33°43' W 118°16'0 0.0
2017-Sep-21 02:59N 33°43' W 118°16'0 0.0
2017-Sep-21 02:29N 33°43' W 118°16'0 0.0
2017-Sep-21 01:59N 33°43' W 118°16'0 0.0
2017-Sep-21 01:28N 33°43' W 118°16'1 2.9
2017-Sep-21 00:59N 33°42' W 118°15'1 2.7
2017-Sep-21 00:28N 33°43' W 118°16'0 0.0
2017-Sep-20 23:58N 33°43' W 118°16'0 0.0
2017-Sep-20 23:27N 33°43' W 118°16'0 0.0
2017-Sep-20 22:58N 33°43' W 118°16'0 0.0
2017-Sep-20 22:19N 33°43' W 118°16'5 9.6
2017-Sep-20 21:49N 33°39' W 118°13'514.7
2017-Sep-20 21:30N 33°43' W 118°16'0 0.0
2017-Sep-20 21:00N 33°43' W 118°16'0 0.0
2017-Sep-20 20:30N 33°43' W 118°16'1 2.5
2017-Sep-20 20:00N 33°43' W 118°15'1 2.5
2017-Sep-20 19:30N 33°43' W 118°16'0 0.0
2017-Sep-20 19:00N 33°43' W 118°16'0 0.0
2017-Sep-20 18:29N 33°43' W 118°16'0 0.0
2017-Sep-20 18:00N 33°43' W 118°16'0 0.0
2017-Sep-20 17:30N 33°43' W 118°16'0 0.0
2017-Sep-20 17:00N 33°43' W 118°16'0 0.0
2017-Sep-20 16:30N 33°43' W 118°16'0 0.0
2017-Sep-20 15:59N 33°43' W 118°16'0 0.0
2017-Sep-20 15:30N 33°43' W 118°16'0 0.0
2017-Sep-20 14:57N 33°43' W 118°16'0 0.0
2017-Sep-20 14:00N 33°43' W 118°16'0 0.0
2017-Sep-20 13:25N 33°43' W 118°16'0 0.0
2017-Sep-20 12:56N 33°43' W 118°16'0 0.0
2017-Sep-20 12:27N 33°43' W 118°16'1 2.7
2017-Sep-20 12:00N 33°43' W 118°15'0 0.5
2017-Sep-20 11:27N 33°42' W 118°15'1 2.0
2017-Sep-20 11:00N 33°43' W 118°16'1 1.1
2017-Sep-20 10:26N 33°43' W 118°16'0 0.0
2017-Sep-20 09:59N 33°43' W 118°16'0 0.0
2017-Sep-20 09:29N 33°43' W 118°16'0 0.0
2017-Sep-20 08:25N 33°43' W 118°16'0 0.0
2017-Sep-20 08:00N 33°43' W 118°16'0 0.0
2017-Sep-20 06:09N 33°43' W 118°16'0 0.0
2017-Sep-20 05:53N 33°43' W 118°16'0 0.0
2017-Sep-20 05:19N 33°43' W 118°16'0 0.0
2017-Sep-20 04:56N 33°43' W 118°16'0 0.0
2017-Sep-20 04:20N 33°43' W 118°16'0 0.0
2017-Sep-20 03:30N 33°43' W 118°16'0 0.0
2017-Sep-20 02:58N 33°43' W 118°16'0 0.0
2017-Sep-20 02:27N 33°43' W 118°16'0 0.0
2017-Sep-20 01:48N 33°43' W 118°16'0 0.0
2017-Sep-20 01:27N 33°43' W 118°16'0 0.0
2017-Sep-20 01:00N 33°43' W 118°16'0 0.0
2017-Sep-20 00:29N 33°43' W 118°16'0 0.0
2017-Sep-20 00:00N 33°43' W 118°16'0 0.0
2017-Sep-19 23:30N 33°43' W 118°16'0 0.0
2017-Sep-19 23:00N 33°43' W 118°16'0 0.0
2017-Sep-19 22:30N 33°43' W 118°16'0 0.0
2017-Sep-19 22:00N 33°43' W 118°16'0 0.0
2017-Sep-19 21:30N 33°43' W 118°16'0 0.0
2017-Sep-19 21:00N 33°43' W 118°16'1 1.3
2017-Sep-19 20:30N 33°44' W 118°16'1 1.3
2017-Sep-19 20:00N 33°43' W 118°16'0 0.0
2017-Sep-19 19:30N 33°43' W 118°16'4 8.4
2017-Sep-19 18:59N 33°40' W 118°13'4 8.9
2017-Sep-19 18:30N 33°43' W 118°16'0 0.0
2017-Sep-19 18:00N 33°43' W 118°16'0 0.0
2017-Sep-19 17:29N 33°43' W 118°16'0 0.0
2017-Sep-19 16:58N 33°43' W 118°16'0 0.0
2017-Sep-19 16:29N 33°43' W 118°16'0 0.0
2017-Sep-19 14:53N 33°43' W 118°16'1 0.7
2017-Sep-19 14:04N 33°44' W 118°17'0 0.0
2017-Sep-19 13:55N 33°44' W 118°17'1 1.1
2017-Sep-19 13:25N 33°43' W 118°16'0 0.0
2017-Sep-19 05:19N 33°43' W 118°16'0 0.0
2017-Sep-19 04:58N 33°43' W 118°16'0 0.0
2017-Sep-19 03:54N 33°43' W 118°16'0 0.0
2017-Sep-19 03:22N 33°43' W 118°16'0 0.0
2017-Sep-19 02:41N 33°43' W 118°16'0 0.0
2017-Sep-19 02:25N 33°43' W 118°16'0 0.0
2017-Sep-19 02:00N 33°43' W 118°16'0 0.0
2017-Sep-19 01:26N 33°43' W 118°16'0 0.0
2017-Sep-19 00:59N 33°43' W 118°16'0 0.0
2017-Sep-19 00:29N 33°43' W 118°16'0 0.7
2017-Sep-19 00:00N 33°43' W 118°16'0 0.7
2017-Sep-18 23:30N 33°43' W 118°16'0 0.0
2017-Sep-18 23:00N 33°43' W 118°16'0 0.0
2017-Sep-18 22:28N 33°43' W 118°16'4 5.3
2017-Sep-18 21:46N 33°43' W 118°12'413.4
2017-Sep-18 21:30N 33°43' W 118°16'0 0.0
2017-Sep-18 20:59N 33°43' W 118°16'0 0.0
2017-Sep-18 20:28N 33°43' W 118°16'0 0.0
2017-Sep-18 20:01N 33°43' W 118°16'0 0.2
2017-Sep-18 19:30N 33°43' W 118°16'0 0.3
2017-Sep-18 19:00N 33°43' W 118°16'0 0.0
2017-Sep-18 18:30N 33°43' W 118°16'0 0.0
2017-Sep-18 17:55N 33°43' W 118°16'2 4.4
2017-Sep-18 17:30N 33°42' W 118°15'2 3.4
2017-Sep-18 16:58N 33°43' W 118°16'0 0.0
2017-Sep-18 16:30N 33°43' W 118°16'0 0.0
2017-Sep-18 15:52N 33°43' W 118°16'0 0.0
2017-Sep-18 14:57N 33°43' W 118°16'0 0.0
2017-Sep-18 14:30N 33°43' W 118°16'0 0.0
2017-Sep-18 13:55N 33°43' W 118°16'0 0.0
2017-Sep-18 13:15N 33°43' W 118°16'0 0.0
2017-Sep-18 12:15N 33°43' W 118°16'0 0.0
2017-Sep-18 11:58N 33°43' W 118°16'3 4.7
2017-Sep-18 11:21N 33°43' W 118°13'3 5.6
2017-Sep-18 10:50N 33°43' W 118°16'0 0.0
2017-Sep-18 08:57N 33°43' W 118°16'0 0.0
2017-Sep-18 08:21N 33°43' W 118°16'0 0.0
2017-Sep-18 07:47N 33°43' W 118°16'0 0.0
2017-Sep-18 07:29N 33°43' W 118°16'0 0.0
2017-Sep-18 06:57N 33°43' W 118°16'0 0.0
2017-Sep-18 06:25N 33°43' W 118°16'0 0.0
2017-Sep-18 05:57N 33°43' W 118°16'0 0.0
2017-Sep-18 05:30N 33°43' W 118°16'0 0.0
2017-Sep-18 05:00N 33°43' W 118°16'0 0.0
2017-Sep-18 04:24N 33°43' W 118°16'0 0.0
2017-Sep-18 03:59N 33°43' W 118°16'0 0.0
2017-Sep-18 03:30N 33°43' W 118°16'0 0.0
2017-Sep-18 02:59N 33°43' W 118°16'0 0.0
2017-Sep-18 02:30N 33°43' W 118°16'0 0.0
2017-Sep-18 01:54N 33°43' W 118°16'0 0.0
2017-Sep-18 01:28N 33°43' W 118°16'0 0.0
2017-Sep-18 01:00N 33°43' W 118°16'0 0.0
2017-Sep-18 00:30N 33°43' W 118°16'1 2.6
2017-Sep-17 23:56N 33°42' W 118°15'1 3.1
2017-Sep-17 23:28N 33°43' W 118°16'0 0.0
2017-Sep-17 23:00N 33°43' W 118°16'0 0.0
2017-Sep-17 22:30N 33°43' W 118°16'0 0.0
2017-Sep-17 22:00N 33°43' W 118°16'0 0.0
2017-Sep-17 21:30N 33°43' W 118°16'1 1.1
2017-Sep-17 21:00N 33°43' W 118°16'1 1.1
2017-Sep-17 20:30N 33°43' W 118°16'0 0.0
2017-Sep-17 19:59N 33°43' W 118°16'0 0.0
2017-Sep-17 19:30N 33°43' W 118°16'0 0.0
2017-Sep-17 18:57N 33°43' W 118°16'0 0.0
2017-Sep-17 18:28N 33°43' W 118°16'0 0.0
2017-Sep-17 17:59N 33°43' W 118°16'0 0.0
2017-Sep-17 17:29N 33°43' W 118°16'0 0.0
2017-Sep-17 16:21N 33°43' W 118°16'0 0.0
2017-Sep-17 15:58N 33°43' W 118°16'0 0.0
2017-Sep-17 14:37N 33°43' W 118°16'0 0.0
2017-Sep-17 14:06N 33°43' W 118°16'0 0.0
2017-Sep-17 13:38N 33°43' W 118°16'0 0.0
2017-Sep-17 12:52N 33°43' W 118°16'0 0.0
2017-Sep-17 12:14N 33°43' W 118°16'0 0.0
2017-Sep-17 11:51N 33°43' W 118°16'3 6.2
2017-Sep-17 11:24N 33°41' W 118°14'3 6.7
2017-Sep-17 10:58N 33°43' W 118°16'0 0.0
2017-Sep-17 10:23N 33°43' W 118°16'0 0.0
2017-Sep-17 09:56N 33°43' W 118°16'0 0.0
2017-Sep-17 09:30N 33°43' W 118°16'0 0.0
2017-Sep-17 08:57N 33°43' W 118°16'0 0.0
2017-Sep-17 08:25N 33°43' W 118°16'0 0.0
2017-Sep-17 07:57N 33°43' W 118°16'0 0.0
2017-Sep-17 07:28N 33°43' W 118°16'0 0.0
2017-Sep-17 06:52N 33°43' W 118°16'0 0.0
2017-Sep-17 06:30N 33°43' W 118°16'0 0.0
2017-Sep-17 05:55N 33°43' W 118°16'0 0.0
2017-Sep-17 05:28N 33°43' W 118°16'0 0.0
2017-Sep-17 04:58N 33°43' W 118°16'0 0.0
2017-Sep-17 04:30N 33°43' W 118°16'0 0.0
2017-Sep-17 04:01N 33°43' W 118°16'0 0.0
2017-Sep-17 03:27N 33°43' W 118°16'0 0.0
2017-Sep-17 03:00N 33°43' W 118°16'0 0.0
2017-Sep-17 02:30N 33°43' W 118°16'0 0.0
2017-Sep-17 01:58N 33°43' W 118°16'1 2.4
2017-Sep-17 01:27N 33°43' W 118°15'1 2.7
2017-Sep-17 01:00N 33°43' W 118°16'0 0.0
2017-Sep-17 00:23N 33°43' W 118°16'0 0.0
2017-Sep-16 23:58N 33°43' W 118°16'0 0.0
2017-Sep-16 23:27N 33°43' W 118°16'0 0.0
2017-Sep-16 23:00N 33°43' W 118°16'0 0.0
2017-Sep-16 22:30N 33°43' W 118°16'0 0.0
2017-Sep-16 22:00N 33°43' W 118°16'0 0.0
2017-Sep-16 21:30N 33°43' W 118°16'0 0.0
2017-Sep-16 21:00N 33°43' W 118°16'0 0.0
2017-Sep-16 20:29N 33°43' W 118°16'0 0.0
2017-Sep-16 20:00N 33°43' W 118°16'0 0.0
2017-Sep-16 19:30N 33°43' W 118°16'0 0.0
2017-Sep-16 18:59N 33°43' W 118°16'0 0.0
2017-Sep-16 18:29N 33°43' W 118°16'0 0.0
2017-Sep-16 17:59N 33°43' W 118°16'0 0.0
2017-Sep-16 17:30N 33°43' W 118°16'0 0.0
2017-Sep-16 16:58N 33°43' W 118°16'0 0.0
2017-Sep-16 16:24N 33°43' W 118°16'0 0.0
2017-Sep-16 15:55N 33°43' W 118°16'0 0.0
2017-Sep-16 14:12N 33°43' W 118°16'0 0.0
2017-Sep-16 13:52N 33°43' W 118°16'0 0.0
2017-Sep-16 12:52N 33°43' W 118°16'0 0.2
2017-Sep-16 12:29N 33°43' W 118°16'0 0.1
2017-Sep-16 11:39N 33°43' W 118°16'2 4.1
2017-Sep-16 11:16N 33°42' W 118°15'2 3.7
2017-Sep-16 10:51N 33°43' W 118°16'0 0.0
2017-Sep-16 10:13N 33°43' W 118°16'0 0.0
2017-Sep-16 09:56N 33°43' W 118°16'0 0.0
2017-Sep-16 09:14N 33°43' W 118°16'0 0.0
2017-Sep-16 08:58N 33°43' W 118°16'0 0.0
2017-Sep-16 08:29N 33°43' W 118°16'0 0.0
2017-Sep-16 07:58N 33°43' W 118°16'0 0.0
2017-Sep-16 07:31N 33°43' W 118°16'0 0.0
2017-Sep-16 06:59N 33°43' W 118°16'0 0.0
2017-Sep-16 06:29N 33°43' W 118°16'0 0.0
2017-Sep-16 06:00N 33°43' W 118°16'0 0.0
2017-Sep-16 05:30N 33°43' W 118°16'0 0.0
2017-Sep-16 05:00N 33°43' W 118°16'0 0.0
2017-Sep-16 04:30N 33°43' W 118°16'0 0.0
2017-Sep-16 04:00N 33°43' W 118°16'0 0.0
2017-Sep-16 03:30N 33°43' W 118°16'0 0.0
2017-Sep-16 02:59N 33°43' W 118°16'0 0.0
2017-Sep-16 02:30N 33°43' W 118°16'0 0.8
2017-Sep-16 02:00N 33°43' W 118°16'0 0.8
2017-Sep-16 01:30N 33°43' W 118°16'0 0.0
2017-Sep-16 01:00N 33°43' W 118°16'0 0.0
2017-Sep-16 00:30N 33°43' W 118°16'0 0.0
2017-Sep-16 00:00N 33°43' W 118°16'0 0.0
2017-Sep-15 23:30N 33°43' W 118°16'0 0.0
2017-Sep-15 23:00N 33°43' W 118°16'0 0.0
2017-Sep-15 22:26N 33°43' W 118°16'0 0.0
2017-Sep-15 22:00N 33°43' W 118°16'0 0.0
2017-Sep-15 21:28N 33°43' W 118°16'4 8.6
2017-Sep-15 21:00N 33°40' W 118°14'4 7.7
2017-Sep-15 20:30N 33°43' W 118°16'3 5.8
2017-Sep-15 20:00N 33°41' W 118°14'3 5.7
2017-Sep-15 19:30N 33°43' W 118°16'0 0.0
2017-Sep-15 19:00N 33°43' W 118°16'0 0.0
2017-Sep-15 18:30N 33°43' W 118°16'0 0.0
2017-Sep-15 18:00N 33°43' W 118°16'0 0.0
2017-Sep-15 17:29N 33°43' W 118°16'0 0.0
2017-Sep-15 17:00N 33°43' W 118°16'0 0.0
2017-Sep-15 16:30N 33°43' W 118°16'0 0.0
2017-Sep-15 15:58N 33°43' W 118°16'0 0.0
2017-Sep-15 15:28N 33°43' W 118°16'0 0.0
2017-Sep-15 15:00N 33°43' W 118°16'0 0.0
2017-Sep-15 14:29N 33°43' W 118°16'0 0.0
2017-Sep-15 13:53N 33°43' W 118°16'0 0.0
2017-Sep-15 13:30N 33°43' W 118°16'0 0.0
2017-Sep-15 12:59N 33°43' W 118°16'0 0.0
2017-Sep-15 12:29N 33°43' W 118°16'0 0.0
2017-Sep-15 11:59N 33°43' W 118°16'2 5.2
2017-Sep-15 11:30N 33°41' W 118°15'1 2.2
2017-Sep-15 11:00N 33°42' W 118°15'2 3.2
2017-Sep-15 10:30N 33°43' W 118°16'0 0.0
2017-Sep-15 10:00N 33°43' W 118°16'0 0.0
2017-Sep-15 09:29N 33°43' W 118°16'0 0.0
2017-Sep-15 09:00N 33°43' W 118°16'0 0.0
2017-Sep-15 08:30N 33°43' W 118°16'0 0.0
2017-Sep-15 08:00N 33°43' W 118°16'0 0.0
2017-Sep-15 07:30N 33°43' W 118°16'0 0.0
2017-Sep-15 07:00N 33°43' W 118°16'0 0.0
2017-Sep-15 06:29N 33°43' W 118°16'0 0.0
2017-Sep-15 06:00N 33°43' W 118°16'0 0.0
2017-Sep-15 05:30N 33°43' W 118°16'0 0.0
2017-Sep-15 05:00N 33°43' W 118°16'0 0.1
2017-Sep-15 02:27N 33°43' W 118°16'0 0.4
2017-Sep-15 01:59N 33°43' W 118°16'0 0.0
2017-Sep-15 01:30N 33°43' W 118°16'1 2.7
2017-Sep-15 01:00N 33°43' W 118°15'1 2.6
2017-Sep-15 00:29N 33°43' W 118°16'0 0.0
2017-Sep-15 00:00N 33°43' W 118°16'0 0.0
2017-Sep-14 23:30N 33°43' W 118°16'0 0.0
2017-Sep-14 23:00N 33°43' W 118°16'0 0.0
2017-Sep-14 22:30N 33°43' W 118°16'3 5.2
2017-Sep-14 22:00N 33°41' W 118°15'3 5.3
2017-Sep-14 21:30N 33°43' W 118°16'0 0.0
2017-Sep-14 21:00N 33°43' W 118°16'0 0.0
2017-Sep-14 20:30N 33°43' W 118°16'0 0.0
2017-Sep-14 20:00N 33°43' W 118°16'0 0.0
2017-Sep-14 19:30N 33°43' W 118°16'0 0.0
2017-Sep-14 18:57N 33°43' W 118°16'0 0.0
2017-Sep-14 18:30N 33°43' W 118°16'0 0.0
2017-Sep-14 18:00N 33°43' W 118°16'0 0.0
2017-Sep-14 17:31N 33°43' W 118°16'0 0.0
2017-Sep-14 17:01N 33°43' W 118°16'0 0.0
2017-Sep-14 16:30N 33°43' W 118°16'0 0.0
2017-Sep-14 15:59N 33°43' W 118°16'0 0.0
2017-Sep-14 15:30N 33°43' W 118°16'0 0.0
2017-Sep-14 15:00N 33°43' W 118°16'1 1.1
2017-Sep-14 14:30N 33°44' W 118°17'1 1.1
2017-Sep-14 14:00N 33°43' W 118°16'0 0.0
2017-Sep-14 13:30N 33°43' W 118°16'0 0.0
2017-Sep-14 12:57N 33°43' W 118°16'0 0.0
2017-Sep-14 12:30N 33°43' W 118°16'0 0.0
2017-Sep-14 12:00N 33°43' W 118°16'5 9.5
2017-Sep-14 11:30N 33°39' W 118°13'5 9.2
2017-Sep-14 11:00N 33°43' W 118°16'0 0.0
2017-Sep-14 10:30N 33°43' W 118°16'0 0.0
2017-Sep-14 10:00N 33°43' W 118°16'4 9.2
2017-Sep-14 09:30N 33°40' W 118°13'4 8.8
2017-Sep-14 09:00N 33°43' W 118°16'0 0.9
2017-Sep-14 08:30N 33°43' W 118°16'0 0.9
2017-Sep-14 08:00N 33°43' W 118°16'0 0.0
2017-Sep-14 07:30N 33°43' W 118°16'0 0.0
2017-Sep-14 07:00N 33°43' W 118°16'0 0.0
2017-Sep-14 05:36N 33°43' W 118°16'0 0.0
2017-Sep-14 05:29N 33°43' W 118°16'0 0.0
2017-Sep-14 04:59N 33°43' W 118°16'0 0.0
2017-Sep-14 04:28N 33°43' W 118°16'0 0.0
2017-Sep-14 04:00N 33°43' W 118°16'0 0.0
2017-Sep-14 03:30N 33°43' W 118°16'0 0.0
2017-Sep-14 03:00N 33°43' W 118°16'1 2.5
2017-Sep-14 02:28N 33°43' W 118°15'1 3.0
2017-Sep-14 02:00N 33°43' W 118°16'0 0.0
2017-Sep-14 01:30N 33°43' W 118°16'0 0.0
2017-Sep-14 00:59N 33°43' W 118°16'0 0.0
2017-Sep-14 00:30N 33°43' W 118°16'0 0.0
2017-Sep-14 00:00N 33°43' W 118°16'0 0.0
2017-Sep-13 23:30N 33°43' W 118°16'0 0.0
2017-Sep-13 23:00N 33°43' W 118°16'0 0.0
2017-Sep-13 22:30N 33°43' W 118°16'610.6
2017-Sep-13 21:57N 33°38' W 118°14'613.0
2017-Sep-13 21:30N 33°43' W 118°16'0 0.0
2017-Sep-13 21:00N 33°43' W 118°16'0 0.0
2017-Sep-13 20:30N 33°43' W 118°16'2 3.4
2017-Sep-13 20:00N 33°42' W 118°15'2 3.2
2017-Sep-13 19:30N 33°43' W 118°16'0 0.0
2017-Sep-13 19:00N 33°43' W 118°16'0 0.0
2017-Sep-13 18:30N 33°43' W 118°16'0 0.0
2017-Sep-13 18:00N 33°43' W 118°16'0 0.0
2017-Sep-13 17:30N 33°43' W 118°16'0 0.0
2017-Sep-13 16:58N 33°43' W 118°16'0 0.0
2017-Sep-13 16:28N 33°43' W 118°16'0 0.0
2017-Sep-13 15:59N 33°43' W 118°16'0 0.0
2017-Sep-13 15:30N 33°43' W 118°16'0 0.2
2017-Sep-13 15:01N 33°43' W 118°16'0 0.2
2017-Sep-13 14:30N 33°43' W 118°16'0 0.0
2017-Sep-13 14:00N 33°43' W 118°16'0 0.0
2017-Sep-13 13:30N 33°43' W 118°16'0 0.0
2017-Sep-13 13:01N 33°43' W 118°16'0 0.0
2017-Sep-13 12:30N 33°43' W 118°16'1 1.4
2017-Sep-13 12:00N 33°43' W 118°16'2 5.0
2017-Sep-13 11:30N 33°41' W 118°14'1 2.8
2017-Sep-13 11:00N 33°42' W 118°13'3 6.3
2017-Sep-13 10:30N 33°43' W 118°16'0 0.0
2017-Sep-13 10:00N 33°43' W 118°16'0 0.0
2017-Sep-13 09:30N 33°43' W 118°16'0 0.0
2017-Sep-13 09:00N 33°43' W 118°16'0 0.0
2017-Sep-13 08:30N 33°43' W 118°16'0 0.0
2017-Sep-13 08:00N 33°43' W 118°16'0 0.0
2017-Sep-13 07:30N 33°43' W 118°16'0 0.0
2017-Sep-13 07:00N 33°43' W 118°16'0 0.3
2017-Sep-13 05:37N 33°43' W 118°16'1 7.0
2017-Sep-13 05:27N 33°42' W 118°15'1 2.7
2017-Sep-13 04:55N 33°43' W 118°16'0 0.0
2017-Sep-13 04:30N 33°43' W 118°16'0 0.0
2017-Sep-13 04:01N 33°43' W 118°16'0 0.0
2017-Sep-13 03:31N 33°43' W 118°16'0 0.0
2017-Sep-13 03:00N 33°43' W 118°16'0 0.0
2017-Sep-13 02:30N 33°43' W 118°16'0 0.0
2017-Sep-13 02:00N 33°43' W 118°16'2 3.5
2017-Sep-13 01:30N 33°42' W 118°15'2 3.6
2017-Sep-13 01:01N 33°43' W 118°16'0 0.0
2017-Sep-13 00:30N 33°43' W 118°16'0 0.0
2017-Sep-13 00:00N 33°43' W 118°16'0 0.0
2017-Sep-12 23:30N 33°43' W 118°16'0 0.0
2017-Sep-12 23:00N 33°43' W 118°16'0 0.0
2017-Sep-12 22:30N 33°43' W 118°16'0 0.0
2017-Sep-12 22:01N 33°43' W 118°16'1 1.4
2017-Sep-12 21:31N 33°43' W 118°16'1 1.4
2017-Sep-12 21:00N 33°43' W 118°16'0 0.0
2017-Sep-12 20:30N 33°43' W 118°16'0 0.0
2017-Sep-12 20:00N 33°43' W 118°16'0 0.4
2017-Sep-12 19:30N 33°43' W 118°16'0 0.4
2017-Sep-12 19:00N 33°43' W 118°16'0 0.0
2017-Sep-12 18:30N 33°43' W 118°16'0 0.0
2017-Sep-12 18:00N 33°43' W 118°16'0 0.0
2017-Sep-12 17:30N 33°43' W 118°16'0 0.0
2017-Sep-12 17:00N 33°43' W 118°16'0 0.0
2017-Sep-12 16:30N 33°43' W 118°16'0 0.0
2017-Sep-12 16:00N 33°43' W 118°16'0 0.0
2017-Sep-12 15:30N 33°43' W 118°16'0 0.0
2017-Sep-12 15:00N 33°43' W 118°16'0 0.0
2017-Sep-12 14:30N 33°43' W 118°16'0 0.0
2017-Sep-12 14:00N 33°43' W 118°16'0 0.0
2017-Sep-12 13:30N 33°43' W 118°16'2 3.2
2017-Sep-12 12:59N 33°42' W 118°15'2 4.2
2017-Sep-12 12:30N 33°40' W 118°14'4 7.4
2017-Sep-12 12:01N 33°43' W 118°16'2 3.6
2017-Sep-12 11:31N 33°42' W 118°15'2 3.6
2017-Sep-12 11:00N 33°43' W 118°16'0 0.0
2017-Sep-12 10:30N 33°43' W 118°16'0 0.0
2017-Sep-12 10:01N 33°43' W 118°16'0 0.0
2017-Sep-12 09:30N 33°43' W 118°16'0 0.0
2017-Sep-12 09:00N 33°43' W 118°16'0 0.0
2017-Sep-12 08:30N 33°43' W 118°16'0 0.0
2017-Sep-12 08:00N 33°43' W 118°16'0 0.0
2017-Sep-12 07:31N 33°43' W 118°16'0 0.0
2017-Sep-12 07:00N 33°43' W 118°16'0 0.0
2017-Sep-12 06:30N 33°43' W 118°16'0 0.0
2017-Sep-12 06:00N 33°43' W 118°16'0 0.0
2017-Sep-12 05:30N 33°43' W 118°16'0 0.0
2017-Sep-12 05:00N 33°43' W 118°16'0 0.0
2017-Sep-12 04:30N 33°43' W 118°16'0 0.0
2017-Sep-12 04:00N 33°43' W 118°16'0 0.0
2017-Sep-12 03:30N 33°43' W 118°16'0 0.0
2017-Sep-12 03:00N 33°43' W 118°16'0 0.8
2017-Sep-12 02:30N 33°43' W 118°16'0 0.8
2017-Sep-12 02:01N 33°43' W 118°16'  
Track history (hours):
 
Tides and Currents Weather Stations Pressure Air Temp Water Temp Dewpoint Dewpoint Depression Visibility Wind Speed Wind Dir Waves Ship Positions

Stephen M. White

Owner: LOS ANGELES, CITY OF, SAN PEDRO, CA. More information available from US FCC via Universal Licensing System and Coast Guard Vessel Documentation Center.

Last reported at 2017-Sep-22 02:00 UTC. Time now 2017-Sep-22 20:41 UTC.
Position N 33°43' W 118°16'.

Length 13 m.

Type: Other ship. MMSI: 367049470.

Date/timePositionNaut miles runAvg speedWind from/ knotsBaromVisibWave heightAir tempDewpointWater temp
2017-Sep-22 02:00N 33°43' W 118°16'0 0.0
2017-Sep-22 01:29N 33°43' W 118°16'0 0.0
2017-Sep-22 01:00N 33°43' W 118°16'0 0.0
2017-Sep-22 00:30N 33°43' W 118°16'0 0.0
2017-Sep-21 23:53N 33°43' W 118°16'0 0.0
2017-Sep-21 23:30N 33°43' W 118°16'0 0.0
2017-Sep-21 23:00N 33°43' W 118°16'1 1.1
2017-Sep-21 22:29N 33°44' W 118°17'1 0.9
2017-Sep-21 21:53N 33°43' W 118°16'410.3
2017-Sep-21 21:30N 33°40' W 118°15'4 7.9
2017-Sep-21 21:00N 33°43' W 118°16'0 0.0
2017-Sep-21 20:30N 33°43' W 118°16'0 0.0
2017-Sep-21 20:00N 33°43' W 118°16'0 0.0
2017-Sep-21 19:30N 33°43' W 118°16'0 0.0
2017-Sep-21 19:00N 33°43' W 118°16'0 0.0
2017-Sep-21 18:30N 33°43' W 118°16'0 0.0
2017-Sep-21 18:00N 33°43' W 118°16'0 0.0
2017-Sep-21 17:30N 33°43' W 118°16'0 0.0
2017-Sep-21 17:00N 33°43' W 118°16'0 0.0
2017-Sep-21 16:30N 33°43' W 118°16'0 0.0
2017-Sep-21 16:00N 33°43' W 118°16'0 0.4
2017-Sep-21 15:23N 33°43' W 118°16'0 0.5
2017-Sep-21 14:54N 33°43' W 118°16'0 0.0
2017-Sep-21 14:30N 33°43' W 118°16'0 0.0
2017-Sep-21 14:00N 33°43' W 118°16'2 3.1
2017-Sep-21 13:30N 33°42' W 118°15'2 2.7
2017-Sep-21 12:56N 33°43' W 118°16'0 0.0
2017-Sep-21 12:28N 33°43' W 118°16'2 4.6
2017-Sep-21 12:00N 33°42' W 118°15'2 4.5
2017-Sep-21 11:29N 33°44' W 118°15'4 7.0
2017-Sep-21 10:51N 33°40' W 118°13'411.9
2017-Sep-21 10:30N 33°44' W 118°11'4 7.1
2017-Sep-21 09:59N 33°43' W 118°15'0 0.6
2017-Sep-21 09:30N 33°42' W 118°15'1 1.0
2017-Sep-21 08:50N 33°43' W 118°15'1 0.3
2017-Sep-21 06:14N 33°43' W 118°16'0 0.0
2017-Sep-21 05:50N 33°43' W 118°16'0 0.0
2017-Sep-21 05:26N 33°43' W 118°16'0 0.0
2017-Sep-21 04:55N 33°43' W 118°16'0 0.0
2017-Sep-21 04:30N 33°43' W 118°16'0 0.0
2017-Sep-21 04:00N 33°43' W 118°16'0 0.0
2017-Sep-21 03:30N 33°43' W 118°16'0 0.0
2017-Sep-21 02:59N 33°43' W 118°16'0 0.0
2017-Sep-21 02:29N 33°43' W 118°16'0 0.0
2017-Sep-21 01:59N 33°43' W 118°16'0 0.0
2017-Sep-21 01:28N 33°43' W 118°16'1 2.9
2017-Sep-21 00:59N 33°42' W 118°15'1 2.7
2017-Sep-21 00:28N 33°43' W 118°16'0 0.0
2017-Sep-20 23:58N 33°43' W 118°16'0 0.0
2017-Sep-20 23:27N 33°43' W 118°16'0 0.0
2017-Sep-20 22:58N 33°43' W 118°16'0 0.0
2017-Sep-20 22:19N 33°43' W 118°16'5 9.6
2017-Sep-20 21:49N 33°39' W 118°13'514.7
2017-Sep-20 21:30N 33°43' W 118°16'0 0.0
2017-Sep-20 21:00N 33°43' W 118°16'0 0.0
2017-Sep-20 20:30N 33°43' W 118°16'1 2.5
2017-Sep-20 20:00N 33°43' W 118°15'1 2.5
2017-Sep-20 19:30N 33°43' W 118°16'0 0.0
2017-Sep-20 19:00N 33°43' W 118°16'0 0.0
2017-Sep-20 18:29N 33°43' W 118°16'0 0.0
2017-Sep-20 18:00N 33°43' W 118°16'0 0.0
2017-Sep-20 17:30N 33°43' W 118°16'0 0.0
2017-Sep-20 17:00N 33°43' W 118°16'0 0.0
2017-Sep-20 16:30N 33°43' W 118°16'0 0.0
2017-Sep-20 15:59N 33°43' W 118°16'0 0.0
2017-Sep-20 15:30N 33°43' W 118°16'0 0.0
2017-Sep-20 14:57N 33°43' W 118°16'0 0.0
2017-Sep-20 14:00N 33°43' W 118°16'0 0.0
2017-Sep-20 13:25N 33°43' W 118°16'0 0.0
2017-Sep-20 12:56N 33°43' W 118°16'0 0.0
2017-Sep-20 12:27N 33°43' W 118°16'1 2.7
2017-Sep-20 12:00N 33°43' W 118°15'0 0.5
2017-Sep-20 11:27N 33°42' W 118°15'1 2.0
2017-Sep-20 11:00N 33°43' W 118°16'1 1.1
2017-Sep-20 10:26N 33°43' W 118°16'0 0.0
2017-Sep-20 09:59N 33°43' W 118°16'0 0.0
2017-Sep-20 09:29N 33°43' W 118°16'0 0.0
2017-Sep-20 08:25N 33°43' W 118°16'0 0.0
2017-Sep-20 08:00N 33°43' W 118°16'0 0.0
2017-Sep-20 06:09N 33°43' W 118°16'0 0.0
2017-Sep-20 05:53N 33°43' W 118°16'0 0.0
2017-Sep-20 05:19N 33°43' W 118°16'0 0.0
2017-Sep-20 04:56N 33°43' W 118°16'0 0.0
2017-Sep-20 04:20N 33°43' W 118°16'0 0.0
2017-Sep-20 03:30N 33°43' W 118°16'0 0.0
2017-Sep-20 02:58N 33°43' W 118°16'0 0.0
2017-Sep-20 02:27N 33°43' W 118°16'0 0.0
2017-Sep-20 01:48N 33°43' W 118°16'0 0.0
2017-Sep-20 01:27N 33°43' W 118°16'0 0.0
2017-Sep-20 01:00N 33°43' W 118°16'0 0.0
2017-Sep-20 00:29N 33°43' W 118°16'0 0.0
2017-Sep-20 00:00N 33°43' W 118°16'0 0.0
2017-Sep-19 23:30N 33°43' W 118°16'0 0.0
2017-Sep-19 23:00N 33°43' W 118°16'0 0.0
2017-Sep-19 22:30N 33°43' W 118°16'0 0.0
2017-Sep-19 22:00N 33°43' W 118°16'0 0.0
2017-Sep-19 21:30N 33°43' W 118°16'0 0.0
2017-Sep-19 21:00N 33°43' W 118°16'1 1.3
2017-Sep-19 20:30N 33°44' W 118°16'1 1.3
2017-Sep-19 20:00N 33°43' W 118°16'0 0.0
2017-Sep-19 19:30N 33°43' W 118°16'4 8.4
2017-Sep-19 18:59N 33°40' W 118°13'4 8.9
2017-Sep-19 18:30N 33°43' W 118°16'0 0.0
2017-Sep-19 18:00N 33°43' W 118°16'0 0.0
2017-Sep-19 17:29N 33°43' W 118°16'0 0.0
2017-Sep-19 16:58N 33°43' W 118°16'0 0.0
2017-Sep-19 16:29N 33°43' W 118°16'0 0.0
2017-Sep-19 14:53N 33°43' W 118°16'1 0.7
2017-Sep-19 14:04N 33°44' W 118°17'0 0.0
2017-Sep-19 13:55N 33°44' W 118°17'1 1.1
2017-Sep-19 13:25N 33°43' W 118°16'0 0.0
2017-Sep-19 05:19N 33°43' W 118°16'0 0.0
2017-Sep-19 04:58N 33°43' W 118°16'0 0.0
2017-Sep-19 03:54N 33°43' W 118°16'0 0.0
2017-Sep-19 03:22N 33°43' W 118°16'0 0.0
2017-Sep-19 02:41N 33°43' W 118°16'0 0.0
2017-Sep-19 02:25N 33°43' W 118°16'0 0.0
2017-Sep-19 02:00N 33°43' W 118°16'0 0.0
2017-Sep-19 01:26N 33°43' W 118°16'0 0.0
2017-Sep-19 00:59N 33°43' W 118°16'0 0.0
2017-Sep-19 00:29N 33°43' W 118°16'0 0.7
2017-Sep-19 00:00N 33°43' W 118°16'0 0.7
2017-Sep-18 23:30N 33°43' W 118°16'0 0.0
2017-Sep-18 23:00N 33°43' W 118°16'0 0.0
2017-Sep-18 22:28N 33°43' W 118°16'4 5.3
2017-Sep-18 21:46N 33°43' W 118°12'413.4
2017-Sep-18 21:30N 33°43' W 118°16'0 0.0
2017-Sep-18 20:59N 33°43' W 118°16'0 0.0
2017-Sep-18 20:28N 33°43' W 118°16'0 0.0
2017-Sep-18 20:01N 33°43' W 118°16'0 0.2
2017-Sep-18 19:30N 33°43' W 118°16'0 0.3
2017-Sep-18 19:00N 33°43' W 118°16'0 0.0
2017-Sep-18 18:30N 33°43' W 118°16'0 0.0
2017-Sep-18 17:55N 33°43' W 118°16'2 4.4
2017-Sep-18 17:30N 33°42' W 118°15'2 3.4
2017-Sep-18 16:58N 33°43' W 118°16'0 0.0
2017-Sep-18 16:30N 33°43' W 118°16'0 0.0
2017-Sep-18 15:52N 33°43' W 118°16'0 0.0
2017-Sep-18 14:57N 33°43' W 118°16'0 0.0
2017-Sep-18 14:30N 33°43' W 118°16'0 0.0
2017-Sep-18 13:55N 33°43' W 118°16'0 0.0
2017-Sep-18 13:15N 33°43' W 118°16'0 0.0
2017-Sep-18 12:15N 33°43' W 118°16'0 0.0
2017-Sep-18 11:58N 33°43' W 118°16'3 4.7
2017-Sep-18 11:21N 33°43' W 118°13'3 5.6
2017-Sep-18 10:50N 33°43' W 118°16'0 0.0
2017-Sep-18 08:57N 33°43' W 118°16'0 0.0
2017-Sep-18 08:21N 33°43' W 118°16'0 0.0
2017-Sep-18 07:47N 33°43' W 118°16'0 0.0
2017-Sep-18 07:29N 33°43' W 118°16'0 0.0
2017-Sep-18 06:57N 33°43' W 118°16'0 0.0
2017-Sep-18 06:25N 33°43' W 118°16'0 0.0
2017-Sep-18 05:57N 33°43' W 118°16'0 0.0
2017-Sep-18 05:30N 33°43' W 118°16'0 0.0
2017-Sep-18 05:00N 33°43' W 118°16'0 0.0
2017-Sep-18 04:24N 33°43' W 118°16'0 0.0
2017-Sep-18 03:59N 33°43' W 118°16'0 0.0
2017-Sep-18 03:30N 33°43' W 118°16'0 0.0
2017-Sep-18 02:59N 33°43' W 118°16'0 0.0
2017-Sep-18 02:30N 33°43' W 118°16'0 0.0
2017-Sep-18 01:54N 33°43' W 118°16'0 0.0
2017-Sep-18 01:28N 33°43' W 118°16'0 0.0
2017-Sep-18 01:00N 33°43' W 118°16'0 0.0
2017-Sep-18 00:30N 33°43' W 118°16'1 2.6
2017-Sep-17 23:56N 33°42' W 118°15'1 3.1
2017-Sep-17 23:28N 33°43' W 118°16'0 0.0
2017-Sep-17 23:00N 33°43' W 118°16'0 0.0
2017-Sep-17 22:30N 33°43' W 118°16'0 0.0
2017-Sep-17 22:00N 33°43' W 118°16'0 0.0
2017-Sep-17 21:30N 33°43' W 118°16'1 1.1
2017-Sep-17 21:00N 33°43' W 118°16'1 1.1
2017-Sep-17 20:30N 33°43' W 118°16'0 0.0
2017-Sep-17 19:59N 33°43' W 118°16'0 0.0
2017-Sep-17 19:30N 33°43' W 118°16'0 0.0
2017-Sep-17 18:57N 33°43' W 118°16'0 0.0
2017-Sep-17 18:28N 33°43' W 118°16'0 0.0
2017-Sep-17 17:59N 33°43' W 118°16'0 0.0
2017-Sep-17 17:29N 33°43' W 118°16'0 0.0
2017-Sep-17 16:21N 33°43' W 118°16'0 0.0
2017-Sep-17 15:58N 33°43' W 118°16'0 0.0
2017-Sep-17 14:37N 33°43' W 118°16'0 0.0
2017-Sep-17 14:06N 33°43' W 118°16'0 0.0
2017-Sep-17 13:38N 33°43' W 118°16'0 0.0
2017-Sep-17 12:52N 33°43' W 118°16'0 0.0
2017-Sep-17 12:14N 33°43' W 118°16'0 0.0
2017-Sep-17 11:51N 33°43' W 118°16'3 6.2
2017-Sep-17 11:24N 33°41' W 118°14'3 6.7
2017-Sep-17 10:58N 33°43' W 118°16'0 0.0
2017-Sep-17 10:23N 33°43' W 118°16'0 0.0
2017-Sep-17 09:56N 33°43' W 118°16'0 0.0
2017-Sep-17 09:30N 33°43' W 118°16'0 0.0
2017-Sep-17 08:57N 33°43' W 118°16'0 0.0
2017-Sep-17 08:25N 33°43' W 118°16'0 0.0
2017-Sep-17 07:57N 33°43' W 118°16'0 0.0
2017-Sep-17 07:28N 33°43' W 118°16'0 0.0
2017-Sep-17 06:52N 33°43' W 118°16'0 0.0
2017-Sep-17 06:30N 33°43' W 118°16'0 0.0
2017-Sep-17 05:55N 33°43' W 118°16'0 0.0
2017-Sep-17 05:28N 33°43' W 118°16'0 0.0
2017-Sep-17 04:58N 33°43' W 118°16'0 0.0
2017-Sep-17 04:30N 33°43' W 118°16'0 0.0
2017-Sep-17 04:01N 33°43' W 118°16'0 0.0
2017-Sep-17 03:27N 33°43' W 118°16'0 0.0
2017-Sep-17 03:00N 33°43' W 118°16'0 0.0
2017-Sep-17 02:30N 33°43' W 118°16'0 0.0
2017-Sep-17 01:58N 33°43' W 118°16'1 2.4
2017-Sep-17 01:27N 33°43' W 118°15'1 2.7
2017-Sep-17 01:00N 33°43' W 118°16'0 0.0
2017-Sep-17 00:23N 33°43' W 118°16'0 0.0
2017-Sep-16 23:58N 33°43' W 118°16'0 0.0
2017-Sep-16 23:27N 33°43' W 118°16'0 0.0
2017-Sep-16 23:00N 33°43' W 118°16'0 0.0
2017-Sep-16 22:30N 33°43' W 118°16'0 0.0
2017-Sep-16 22:00N 33°43' W 118°16'0 0.0
2017-Sep-16 21:30N 33°43' W 118°16'0 0.0
2017-Sep-16 21:00N 33°43' W 118°16'0 0.0
2017-Sep-16 20:29N 33°43' W 118°16'0 0.0
2017-Sep-16 20:00N 33°43' W 118°16'0 0.0
2017-Sep-16 19:30N 33°43' W 118°16'0 0.0
2017-Sep-16 18:59N 33°43' W 118°16'0 0.0
2017-Sep-16 18:29N 33°43' W 118°16'0 0.0
2017-Sep-16 17:59N 33°43' W 118°16'0 0.0
2017-Sep-16 17:30N 33°43' W 118°16'0 0.0
2017-Sep-16 16:58N 33°43' W 118°16'0 0.0
2017-Sep-16 16:24N 33°43' W 118°16'0 0.0
2017-Sep-16 15:55N 33°43' W 118°16'0 0.0
2017-Sep-16 14:12N 33°43' W 118°16'0 0.0
2017-Sep-16 13:52N 33°43' W 118°16'0 0.0
2017-Sep-16 12:52N 33°43' W 118°16'0 0.2
2017-Sep-16 12:29N 33°43' W 118°16'0 0.1
2017-Sep-16 11:39N 33°43' W 118°16'2 4.1
2017-Sep-16 11:16N 33°42' W 118°15'2 3.7
2017-Sep-16 10:51N 33°43' W 118°16'0 0.0
2017-Sep-16 10:13N 33°43' W 118°16'0 0.0
2017-Sep-16 09:56N 33°43' W 118°16'0 0.0
2017-Sep-16 09:14N 33°43' W 118°16'0 0.0
2017-Sep-16 08:58N 33°43' W 118°16'0 0.0
2017-Sep-16 08:29N 33°43' W 118°16'0 0.0
2017-Sep-16 07:58N 33°43' W 118°16'0 0.0
2017-Sep-16 07:31N 33°43' W 118°16'0 0.0
2017-Sep-16 06:59N 33°43' W 118°16'0 0.0
2017-Sep-16 06:29N 33°43' W 118°16'0 0.0
2017-Sep-16 06:00N 33°43' W 118°16'0 0.0
2017-Sep-16 05:30N 33°43' W 118°16'0 0.0
2017-Sep-16 05:00N 33°43' W 118°16'0 0.0
2017-Sep-16 04:30N 33°43' W 118°16'0 0.0
2017-Sep-16 04:00N 33°43' W 118°16'0 0.0
2017-Sep-16 03:30N 33°43' W 118°16'0 0.0
2017-Sep-16 02:59N 33°43' W 118°16'0 0.0
2017-Sep-16 02:30N 33°43' W 118°16'0 0.8
2017-Sep-16 02:00N 33°43' W 118°16'0 0.8
2017-Sep-16 01:30N 33°43' W 118°16'0 0.0
2017-Sep-16 01:00N 33°43' W 118°16'0 0.0
2017-Sep-16 00:30N 33°43' W 118°16'0 0.0
2017-Sep-16 00:00N 33°43' W 118°16'0 0.0
2017-Sep-15 23:30N 33°43' W 118°16'0 0.0
2017-Sep-15 23:00N 33°43' W 118°16'0 0.0
2017-Sep-15 22:26N 33°43' W 118°16'0 0.0
2017-Sep-15 22:00N 33°43' W 118°16'0 0.0
2017-Sep-15 21:28N 33°43' W 118°16'4 8.6
2017-Sep-15 21:00N 33°40' W 118°14'4 7.7
2017-Sep-15 20:30N 33°43' W 118°16'3 5.8
2017-Sep-15 20:00N 33°41' W 118°14'3 5.7
2017-Sep-15 19:30N 33°43' W 118°16'0 0.0
2017-Sep-15 19:00N 33°43' W 118°16'0 0.0
2017-Sep-15 18:30N 33°43' W 118°16'0 0.0
2017-Sep-15 18:00N 33°43' W 118°16'0 0.0
2017-Sep-15 17:29N 33°43' W 118°16'0 0.0
2017-Sep-15 17:00N 33°43' W 118°16'0 0.0
2017-Sep-15 16:30N 33°43' W 118°16'0 0.0
2017-Sep-15 15:58N 33°43' W 118°16'0 0.0
2017-Sep-15 15:28N 33°43' W 118°16'0 0.0
2017-Sep-15 15:00N 33°43' W 118°16'0 0.0
2017-Sep-15 14:29N 33°43' W 118°16'0 0.0
2017-Sep-15 13:53N 33°43' W 118°16'0 0.0
2017-Sep-15 13:30N 33°43' W 118°16'0 0.0
2017-Sep-15 12:59N 33°43' W 118°16'0 0.0
2017-Sep-15 12:29N 33°43' W 118°16'0 0.0
2017-Sep-15 11:59N 33°43' W 118°16'2 5.2
2017-Sep-15 11:30N 33°41' W 118°15'1 2.2
2017-Sep-15 11:00N 33°42' W 118°15'2 3.2
2017-Sep-15 10:30N 33°43' W 118°16'0 0.0
2017-Sep-15 10:00N 33°43' W 118°16'0 0.0
2017-Sep-15 09:29N 33°43' W 118°16'0 0.0
2017-Sep-15 09:00N 33°43' W 118°16'0 0.0
2017-Sep-15 08:30N 33°43' W 118°16'0 0.0
2017-Sep-15 08:00N 33°43' W 118°16'0 0.0
2017-Sep-15 07:30N 33°43' W 118°16'0 0.0
2017-Sep-15 07:00N 33°43' W 118°16'0 0.0
2017-Sep-15 06:29N 33°43' W 118°16'0 0.0
2017-Sep-15 06:00N 33°43' W 118°16'0 0.0
2017-Sep-15 05:30N 33°43' W 118°16'0 0.0
2017-Sep-15 05:00N 33°43' W 118°16'0 0.1
2017-Sep-15 02:27N 33°43' W 118°16'0 0.4
2017-Sep-15 01:59N 33°43' W 118°16'0 0.0
2017-Sep-15 01:30N 33°43' W 118°16'1 2.7
2017-Sep-15 01:00N 33°43' W 118°15'1 2.6
2017-Sep-15 00:29N 33°43' W 118°16'0 0.0
2017-Sep-15 00:00N 33°43' W 118°16'0 0.0
2017-Sep-14 23:30N 33°43' W 118°16'0 0.0
2017-Sep-14 23:00N 33°43' W 118°16'0 0.0
2017-Sep-14 22:30N 33°43' W 118°16'3 5.2
2017-Sep-14 22:00N 33°41' W 118°15'3 5.3
2017-Sep-14 21:30N 33°43' W 118°16'0 0.0
2017-Sep-14 21:00N 33°43' W 118°16'0 0.0
2017-Sep-14 20:30N 33°43' W 118°16'0 0.0
2017-Sep-14 20:00N 33°43' W 118°16'0 0.0
2017-Sep-14 19:30N 33°43' W 118°16'0 0.0
2017-Sep-14 18:57N 33°43' W 118°16'0 0.0
2017-Sep-14 18:30N 33°43' W 118°16'0 0.0
2017-Sep-14 18:00N 33°43' W 118°16'0 0.0
2017-Sep-14 17:31N 33°43' W 118°16'0 0.0
2017-Sep-14 17:01N 33°43' W 118°16'0 0.0
2017-Sep-14 16:30N 33°43' W 118°16'0 0.0
2017-Sep-14 15:59N 33°43' W 118°16'0 0.0
2017-Sep-14 15:30N 33°43' W 118°16'0 0.0
2017-Sep-14 15:00N 33°43' W 118°16'1 1.1
2017-Sep-14 14:30N 33°44' W 118°17'1 1.1
2017-Sep-14 14:00N 33°43' W 118°16'0 0.0
2017-Sep-14 13:30N 33°43' W 118°16'0 0.0
2017-Sep-14 12:57N 33°43' W 118°16'0 0.0
2017-Sep-14 12:30N 33°43' W 118°16'0 0.0
2017-Sep-14 12:00N 33°43' W 118°16'5 9.5
2017-Sep-14 11:30N 33°39' W 118°13'5 9.2
2017-Sep-14 11:00N 33°43' W 118°16'0 0.0
2017-Sep-14 10:30N 33°43' W 118°16'0 0.0
2017-Sep-14 10:00N 33°43' W 118°16'4 9.2
2017-Sep-14 09:30N 33°40' W 118°13'4 8.8
2017-Sep-14 09:00N 33°43' W 118°16'0 0.9
2017-Sep-14 08:30N 33°43' W 118°16'0 0.9
2017-Sep-14 08:00N 33°43' W 118°16'0 0.0
2017-Sep-14 07:30N 33°43' W 118°16'0 0.0
2017-Sep-14 07:00N 33°43' W 118°16'0 0.0
2017-Sep-14 05:36N 33°43' W 118°16'0 0.0
2017-Sep-14 05:29N 33°43' W 118°16'0 0.0
2017-Sep-14 04:59N 33°43' W 118°16'0 0.0
2017-Sep-14 04:28N 33°43' W 118°16'0 0.0
2017-Sep-14 04:00N 33°43' W 118°16'0 0.0
2017-Sep-14 03:30N 33°43' W 118°16'0 0.0
2017-Sep-14 03:00N 33°43' W 118°16'1 2.5
2017-Sep-14 02:28N 33°43' W 118°15'1 3.0
2017-Sep-14 02:00N 33°43' W 118°16'0 0.0
2017-Sep-14 01:30N 33°43' W 118°16'0 0.0
2017-Sep-14 00:59N 33°43' W 118°16'0 0.0
2017-Sep-14 00:30N 33°43' W 118°16'0 0.0
2017-Sep-14 00:00N 33°43' W 118°16'0 0.0
2017-Sep-13 23:30N 33°43' W 118°16'0 0.0
2017-Sep-13 23:00N 33°43' W 118°16'0 0.0
2017-Sep-13 22:30N 33°43' W 118°16'610.6
2017-Sep-13 21:57N 33°38' W 118°14'613.0
2017-Sep-13 21:30N 33°43' W 118°16'0 0.0
2017-Sep-13 21:00N 33°43' W 118°16'0 0.0
2017-Sep-13 20:30N 33°43' W 118°16'2 3.4
2017-Sep-13 20:00N 33°42' W 118°15'2 3.2
2017-Sep-13 19:30N 33°43' W 118°16'0 0.0
2017-Sep-13 19:00N 33°43' W 118°16'0 0.0
2017-Sep-13 18:30N 33°43' W 118°16'0 0.0
2017-Sep-13 18:00N 33°43' W 118°16'0 0.0
2017-Sep-13 17:30N 33°43' W 118°16'0 0.0
2017-Sep-13 16:58N 33°43' W 118°16'0 0.0
2017-Sep-13 16:28N 33°43' W 118°16'0 0.0
2017-Sep-13 15:59N 33°43' W 118°16'0 0.0
2017-Sep-13 15:30N 33°43' W 118°16'0 0.2
2017-Sep-13 15:01N 33°43' W 118°16'0 0.2
2017-Sep-13 14:30N 33°43' W 118°16'0 0.0
2017-Sep-13 14:00N 33°43' W 118°16'0 0.0
2017-Sep-13 13:30N 33°43' W 118°16'0 0.0
2017-Sep-13 13:01N 33°43' W 118°16'0 0.0
2017-Sep-13 12:30N 33°43' W 118°16'1 1.4
2017-Sep-13 12:00N 33°43' W 118°16'2 5.0
2017-Sep-13 11:30N 33°41' W 118°14'1 2.8
2017-Sep-13 11:00N 33°42' W 118°13'3 6.3
2017-Sep-13 10:30N 33°43' W 118°16'0 0.0
2017-Sep-13 10:00N 33°43' W 118°16'0 0.0
2017-Sep-13 09:30N 33°43' W 118°16'0 0.0
2017-Sep-13 09:00N 33°43' W 118°16'0 0.0
2017-Sep-13 08:30N 33°43' W 118°16'0 0.0
2017-Sep-13 08:00N 33°43' W 118°16'0 0.0
2017-Sep-13 07:30N 33°43' W 118°16'0 0.0
2017-Sep-13 07:00N 33°43' W 118°16'0 0.3
2017-Sep-13 05:37N 33°43' W 118°16'1 7.0
2017-Sep-13 05:27N 33°42' W 118°15'1 2.7
2017-Sep-13 04:55N 33°43' W 118°16'0 0.0
2017-Sep-13 04:30N 33°43' W 118°16'0 0.0
2017-Sep-13 04:01N 33°43' W 118°16'0 0.0
2017-Sep-13 03:31N 33°43' W 118°16'0 0.0
2017-Sep-13 03:00N 33°43' W 118°16'0 0.0
2017-Sep-13 02:30N 33°43' W 118°16'0 0.0
2017-Sep-13 02:00N 33°43' W 118°16'2 3.5
2017-Sep-13 01:30N 33°42' W 118°15'2 3.6
2017-Sep-13 01:01N 33°43' W 118°16'0 0.0
2017-Sep-13 00:30N 33°43' W 118°16'0 0.0
2017-Sep-13 00:00N 33°43' W 118°16'0 0.0
2017-Sep-12 23:30N 33°43' W 118°16'0 0.0
2017-Sep-12 23:00N 33°43' W 118°16'0 0.0
2017-Sep-12 22:30N 33°43' W 118°16'0 0.0
2017-Sep-12 22:01N 33°43' W 118°16'1 1.4
2017-Sep-12 21:31N 33°43' W 118°16'1 1.4
2017-Sep-12 21:00N 33°43' W 118°16'0 0.0
2017-Sep-12 20:30N 33°43' W 118°16'0 0.0
2017-Sep-12 20:00N 33°43' W 118°16'0 0.4
2017-Sep-12 19:30N 33°43' W 118°16'0 0.4
2017-Sep-12 19:00N 33°43' W 118°16'0 0.0
2017-Sep-12 18:30N 33°43' W 118°16'0 0.0
2017-Sep-12 18:00N 33°43' W 118°16'0 0.0
2017-Sep-12 17:30N 33°43' W 118°16'0 0.0
2017-Sep-12 17:00N 33°43' W 118°16'0 0.0
2017-Sep-12 16:30N 33°43' W 118°16'0 0.0
2017-Sep-12 16:00N 33°43' W 118°16'0 0.0
2017-Sep-12 15:30N 33°43' W 118°16'0 0.0
2017-Sep-12 15:00N 33°43' W 118°16'0 0.0
2017-Sep-12 14:30N 33°43' W 118°16'0 0.0
2017-Sep-12 14:00N 33°43' W 118°16'0 0.0
2017-Sep-12 13:30N 33°43' W 118°16'2 3.2
2017-Sep-12 12:59N 33°42' W 118°15'2 4.2
2017-Sep-12 12:30N 33°40' W 118°14'4 7.4
2017-Sep-12 12:01N 33°43' W 118°16'2 3.6
2017-Sep-12 11:31N 33°42' W 118°15'2 3.6
2017-Sep-12 11:00N 33°43' W 118°16'0 0.0
2017-Sep-12 10:30N 33°43' W 118°16'0 0.0
2017-Sep-12 10:01N 33°43' W 118°16'0 0.0
2017-Sep-12 09:30N 33°43' W 118°16'0 0.0
2017-Sep-12 09:00N 33°43' W 118°16'0 0.0
2017-Sep-12 08:30N 33°43' W 118°16'0 0.0
2017-Sep-12 08:00N 33°43' W 118°16'0 0.0
2017-Sep-12 07:31N 33°43' W 118°16'0 0.0
2017-Sep-12 07:00N 33°43' W 118°16'0 0.0
2017-Sep-12 06:30N 33°43' W 118°16'0 0.0
2017-Sep-12 06:00N 33°43' W 118°16'0 0.0
2017-Sep-12 05:30N 33°43' W 118°16'0 0.0
2017-Sep-12 05:00N 33°43' W 118°16'0 0.0
2017-Sep-12 04:30N 33°43' W 118°16'0 0.0
2017-Sep-12 04:00N 33°43' W 118°16'0 0.0
2017-Sep-12 03:30N 33°43' W 118°16'0 0.0
2017-Sep-12 03:00N 33°43' W 118°16'0 0.8
2017-Sep-12 02:30N 33°43' W 118°16'0 0.8
2017-Sep-12 02:01N 33°43' W 118°16'  

Dump ship's entire track history